Latest Weather Observations for Groote Eylandt Airport

IDD60801

Issued at 12:31 pm CST Tuesday 24 January 2017 (issued every 30 minutes, with the page automatically refreshed every 10 minutes)

About weather observations | Map of weather stations | Latest weather observations for NT | Other Formats
Station Details ID: 014518 Name: GROOTE EYLANDT AIRPORT Lat: -13.97 Lon: 136.46 Height: 13.7 m
Data from the previous 72 hours. | See also: Recent months at Groote Eylandt Airport
Date/Time
CST
Temp
°C
App
Temp
°C
Dew
Point
°C
Rel
Hum
%
Delta-T
°C
Wind Press
QNH
hPa
Press
MSL
hPa
Rain since
9am
mm
Dir  Spd
km/h
Gust
km/h
Spd
kts
Gust
kts
24/12:30pm 28.7 31.4 24.7 79 2.8 N 19 26 10 14 1006.9 1006.8 0.0
24/12:00pm 28.3 31.5 24.3 79 2.8 NNE 15 26 8 14 1006.9 1006.8 0.0
24/11:30am 28.6 30.8 23.9 75 3.3 NNE 19 28 10 15 1006.7 1006.6 0.0
24/11:00am 28.6 30.7 23.7 75 3.4 N 19 30 10 16 1007.2 1007.1 0.0
24/10:30am 28.7 31.2 24.5 78 2.9 NNE 19 26 10 14 1007.5 1007.4 0.0
24/10:00am 28.7 31.6 24.5 78 2.9 NNE 17 24 9 13 1007.7 1007.6 0.0
24/09:30am 28.4 31.1 24.8 81 2.5 NNE 19 24 10 13 1007.9 1007.8 0.0
24/09:00am 28.0 31.5 24.8 83 2.2 NNE 15 20 8 11 1007.9 1007.8 90.0
24/08:30am 27.6 31.5 24.8 85 2.0 NNE 13 19 7 10 1007.7 1007.6 90.0
24/08:00am 26.8 31.5 25.0 90 1.3 NE 9 13 5 7 1007.6 1007.5 90.0
24/07:30am 26.1 30.3 24.7 92 1.0 NE 11 15 6 8 1007.6 1007.5 90.0
24/07:00am 25.7 30.3 24.8 95 0.6 NE 9 13 5 7 1007.2 1007.1 90.0
24/06:30am 25.4 29.5 24.5 95 0.6 NE 11 13 6 7 1006.7 1006.6 90.0
24/06:00am 25.3 29.3 24.4 95 0.6 NE 11 15 6 8 1006.0 1005.9 90.0
24/05:30am 25.3 29.7 24.4 95 0.6 NNE 9 11 5 6 1005.6 1005.5 89.8
24/05:00am 25.3 29.7 24.4 95 0.6 NNE 9 13 5 7 1005.4 1005.3 89.6
24/04:30am 25.2 29.9 24.3 95 0.6 NNE 7 9 4 5 1005.0 1004.9 89.6
24/04:00am 25.4 29.5 24.0 92 1.0 NNE 9 11 5 6 1004.7 1004.6 89.6
24/03:30am 25.2 29.9 24.3 95 0.6 N 7 11 4 6 1004.5 1004.4 89.6
24/03:00am 25.5 30.4 24.3 93 0.8 NNW 6 9 3 5 1004.4 1004.3 89.6
24/02:30am 25.5 29.8 24.3 93 0.8 NNW 9 13 5 7 1004.8 1004.7 89.6
24/02:00am 25.7 29.0 24.5 93 0.8 NNW 15 20 8 11 1005.5 1005.4 89.6
24/01:30am 26.1 29.0 24.5 91 1.1 NW 17 22 9 12 1005.9 1005.8 89.2
24/01:24am 26.1 29.0 24.5 91 1.1 NW 17 24 9 13 1006.0 1005.9 89.2
24/01:00am 26.5 29.4 24.5 89 1.4 NNW 17 22 9 12 1006.3 1006.2 89.0
24/12:30am 26.5 29.3 24.3 88 1.5 NNW 17 24 9 13 1006.4 1006.3 89.0
24/12:00am 26.2 29.4 24.4 90 1.2 NNW 15 22 8 12 1006.5 1006.4 89.0
 
Date/Time
CST
Temp
°C
App
Temp
°C
Dew
Point
°C
Rel
Hum
%
Delta-T
°C
Wind Press
QNH
hPa
Press
MSL
hPa
Rain since
9am
mm
Dir  Spd
km/h
Gust
km/h
Spd
kts
Gust
kts
23/11:33pm 26.2 29.7 24.2 89 1.4 NNW 13 19 7 10 1006.6 1006.5 89.0
23/11:30pm 26.2 29.7 24.2 89 1.4 NNW 13 19 7 10 1006.6 1006.5 89.0
23/11:00pm 26.2 29.3 24.1 88 1.4 NNW 15 24 8 13 1006.8 1006.7 89.0
23/10:48pm 26.2 28.9 24.1 88 1.4 NNW 17 20 9 11 1006.8 1006.7 89.0
23/10:30pm 26.2 29.8 24.4 90 1.2 NNW 13 20 7 11 1006.8 1006.7 89.0
23/10:00pm 26.3 29.6 24.5 90 1.2 NW 15 20 8 11 1006.5 1006.4 89.0
23/09:30pm 26.5 31.1 24.7 90 1.3 NNW 9 13 5 7 1006.2 1006.1 89.0
23/09:25pm 26.5 31.1 24.7 90 1.3 NNW 9 15 5 8 1006.2 1006.1 89.0
23/09:00pm 26.4 30.1 24.6 90 1.3 NNW 13 19 7 10 1005.9 1005.8 89.0
23/08:30pm 26.5 31.2 24.9 91 1.1 N 9 13 5 7 1005.8 1005.7 89.0
23/08:00pm 26.5 30.7 24.7 90 1.3 N 11 15 6 8 1005.5 1005.4 89.0
23/07:30pm 26.5 30.3 24.7 90 1.3 NNE 13 19 7 10 1005.0 1004.9 89.0
23/07:00pm 26.5 30.8 24.9 91 1.1 NNE 11 17 6 9 1004.8 1004.7 89.0
23/06:50pm 26.5 30.4 24.9 91 1.1 NNE 13 20 7 11 1004.6 1004.5 89.0
23/06:32pm 26.5 30.8 24.9 91 1.1 NNE 11 15 6 8 1004.2 1004.1 89.0
23/06:30pm 26.5 30.8 24.9 91 1.1 NNE 11 17 6 9 1004.2 1004.1 89.0
23/06:00pm 26.7 31.0 24.9 90 1.3 NNE 11 15 6 8 1003.8 1003.7 89.0
23/05:30pm 27.0 30.9 24.8 88 1.5 NNE 13 17 7 9 1003.2 1003.1 89.0
23/05:00pm 27.4 32.5 25.0 87 1.7 NE 7 9 4 5 1002.8 1002.7 89.0
23/04:39pm 27.5 32.3 25.1 87 1.7 NE 9 11 5 6 1002.7 1002.6 89.0
23/04:30pm 27.6 33.0 25.4 88 1.6 NE 7 9 4 5 1002.8 1002.7 89.0
23/04:00pm 27.8 34.6 25.6 88 1.6 CALM 0 0 0 0 1002.8 1002.7 89.0
23/03:30pm 27.1 32.9 25.1 89 1.4 ESE 4 9 2 5 1002.8 1002.7 89.0
23/03:07pm 26.4 32.1 25.0 92 1.0 SSE 4 11 2 6 1002.9 1002.8 89.0
23/03:00pm 26.2 32.7 25.0 93 0.8 CALM 0 0 0 0 1002.9 1002.8 89.0
23/02:43pm 25.6 31.9 24.7 95 0.6 CALM 0 0 0 0 1003.2 1003.1 89.0
23/02:30pm 25.4 30.9 24.7 96 0.5 SSE 4 9 2 5 1003.2 1003.1 89.0
23/02:09pm 25.7 32.4 25.4 98 0.2 CALM 0 0 0 0 1003.7 1003.6 89.0
23/02:00pm 25.6 32.2 25.3 98 0.2 CALM 0 6 0 3 1004.1 1004.0 89.0
23/01:41pm 25.4 30.8 25.1 98 0.2 SSE 6 9 3 5 1004.5 1004.4 88.8
23/01:30pm 25.3 30.4 25.0 98 0.2 SSW 7 9 4 5 1004.7 1004.6 88.4
23/01:00pm 25.2 30.3 24.9 98 0.2 SE 7 11 4 6 1005.2 1005.1 82.6
23/12:30pm 25.2 31.6 24.9 98 0.2 CALM 0 0 0 0 1005.3 1005.2 75.2
23/12:23pm 25.2 31.2 24.9 98 0.2 SSE 2 9 1 5 1005.4 1005.3 74.8
23/12:00pm 25.1 30.2 24.6 97 0.3 S 6 9 3 5 1005.5 1005.4 70.8
23/11:40am 25.2 29.9 24.9 98 0.2 SSE 9 13 5 7 1005.7 1005.6 67.6
23/11:32am 25.4 30.8 25.1 98 0.2 E 6 13 3 7 1005.9 1005.8 65.6
23/11:31am 25.5 30.9 25.2 98 0.2 E 6 7 3 4 1005.9 1005.8 65.2
23/11:30am 25.5 30.9 25.2 98 0.2 E 6 7 3 4 1005.9 1005.8 64.6
23/11:00am 25.6 31.5 25.3 98 0.2 SE 4 9 2 5 1006.1 1006.0 49.8
23/10:30am 25.6 30.8 25.1 97 0.3 SE 7 13 4 7 1006.1 1006.0 26.8
23/10:29am 25.6 30.8 25.1 97 0.3 ESE 7 13 4 7 1006.1 1006.0 26.0
23/10:20am 25.6 30.0 25.1 97 0.3 E 11 15 6 8 1006.1 1006.0 21.6
23/10:00am 25.7 31.1 25.2 97 0.3 S 6 9 3 5 1006.2 1006.1 19.0
23/09:30am 25.7 30.4 25.0 96 0.5 SE 9 17 5 9 1006.2 1006.1 10.8
23/09:00am 25.8 30.4 24.8 94 0.7 W 9 17 5 9 1005.8 1005.7 20.8
23/08:30am 26.5 31.1 25.3 93 0.8 W 11 17 6 9 1005.6 1005.5 8.6
23/08:16am 26.6 31.5 25.2 92 1.0 WSW 9 15 5 8 1005.3 1005.2 8.4
23/08:00am 26.9 31.6 25.5 92 1.0 W 11 17 6 9 1005.2 1005.1 8.0
23/07:42am 26.7 31.1 25.1 91 1.1 W 11 17 6 9 1005.2 1005.1 7.8
23/07:33am 26.8 31.7 25.2 91 1.1 W 9 13 5 7 1005.2 1005.1 7.8
23/07:30am 26.8 31.7 25.2 91 1.1 W 9 11 5 6 1005.2 1005.1 7.6
23/07:18am 26.8 32.1 25.2 91 1.1 W 7 13 4 7 1005.2 1005.1 7.6
23/07:03am 27.0 31.7 25.0 89 1.4 W 9 17 5 9 1005.2 1005.1 7.4
23/07:00am 27.1 31.9 25.1 89 1.4 W 9 13 5 7 1005.1 1005.0 7.4
23/06:41am 27.0 32.1 25.0 89 1.4 WNW 7 13 4 7 1004.8 1004.7 7.4
23/06:30am 27.0 31.6 24.8 88 1.5 WNW 9 13 5 7 1004.7 1004.6 7.4
23/06:00am 26.8 31.5 25.0 90 1.3 W 9 13 5 7 1004.1 1004.0 7.4
23/05:37am 26.7 31.9 25.1 91 1.1 W 7 11 4 6 1004.0 1003.9 7.4
23/05:30am 26.5 31.9 25.1 92 1.0 W 6 9 3 5 1004.0 1003.9 7.4
23/05:15am 26.4 32.1 25.0 92 1.0 WNW 4 7 2 4 1004.1 1004.0 7.4
23/05:00am 26.3 31.6 24.9 92 1.0 WNW 6 7 3 4 1003.9 1003.8 7.4
23/04:30am 26.3 32.4 25.1 93 0.8 NW 2 7 1 4 1003.8 1003.7 7.4
23/04:00am 26.4 33.1 25.4 94 0.7 CALM 0 0 0 0 1003.7 1003.6 7.4
23/03:56am 26.3 32.9 25.3 94 0.7 CALM 0 0 0 0 1003.7 1003.6 7.4
23/03:30am 26.3 32.9 25.3 94 0.7 CALM 0 0 0 0 1004.1 1004.0 7.4
23/03:24am 26.3 32.9 25.3 94 0.7 CALM 0 0 0 0 1004.1 1004.0 7.4
23/03:16am 26.3 32.6 25.3 94 0.7 WNW 2 9 1 5 1004.2 1004.1 7.2
23/03:09am 26.3 31.8 25.3 94 0.7 WNW 6 9 3 5 1004.3 1004.2 7.2
23/03:00am 26.4 33.0 25.2 93 0.8 CALM 0 0 0 0 1004.3 1004.2 7.0
23/02:30am 26.6 33.2 25.2 92 1.0 CALM 0 0 0 0 1004.1 1004.0 7.0
23/02:00am 26.4 31.4 24.8 91 1.1 NNW 7 9 4 5 1004.2 1004.1 7.0
23/01:36am 26.4 32.1 25.0 92 1.0 N 4 7 2 4 1004.5 1004.4 7.0
23/01:30am 26.4 32.1 25.0 92 1.0 N 4 7 2 4 1004.7 1004.6 7.0
23/01:13am 26.5 31.8 25.3 93 0.8 N 7 11 4 6 1005.2 1005.1 7.0
23/01:02am 26.4 31.1 25.0 92 1.0 N 9 13 5 7 1005.3 1005.2 7.0
23/01:00am 26.5 31.4 25.3 93 0.8 N 9 11 5 6 1005.3 1005.2 7.0
23/12:37am 26.6 31.6 24.8 90 1.3 N 7 13 4 7 1005.6 1005.5 7.0
23/12:30am 26.7 31.4 24.9 90 1.3 NNW 9 13 5 7 1005.6 1005.5 7.0
23/12:00am 26.6 31.8 24.8 90 1.3 N 6 9 3 5 1006.2 1006.1 7.0
 
Date/Time
CST
Temp
°C
App
Temp
°C
Dew
Point
°C
Rel
Hum
%
Delta-T
°C
Wind Press
QNH
hPa
Press
MSL
hPa
Rain since
9am
mm
Dir  Spd
km/h
Gust
km/h
Spd
kts
Gust
kts
22/11:30pm 26.5 31.4 24.7 90 1.3 N 7 11 4 6 1006.9 1006.8 7.0
22/11:00pm 26.7 31.3 24.7 89 1.4 N 9 13 5 7 1007.2 1007.1 7.0
22/10:30pm 26.9 31.1 24.7 88 1.5 N 11 15 6 8 1007.1 1007.0 6.8
22/10:17pm 26.8 31.7 24.6 88 1.5 N 7 13 4 7 1007.2 1007.1 6.8
22/10:00pm 26.9 31.1 24.7 88 1.5 N 11 17 6 9 1007.0 1006.9 6.8
22/09:55pm 27.0 31.2 24.8 88 1.5 N 11 17 6 9 1007.0 1006.9 6.8
22/09:53pm 26.9 31.0 24.5 87 1.7 N 11 17 6 9 1007.0 1006.9 6.8
22/09:30pm 26.7 32.0 25.3 92 1.0 NNE 7 9 4 5 1006.7 1006.6 6.8
22/09:29pm 26.7 32.0 25.3 92 1.0 NNE 7 9 4 5 1006.7 1006.6 6.8
22/09:25pm 26.7 32.0 25.3 92 1.0 NNE 7 9 4 5 1006.6 1006.5 6.8
22/09:09pm 26.4 31.0 24.8 91 1.1 ENE 9 13 5 7 1006.5 1006.4 6.8
22/09:00pm 26.7 31.6 25.3 92 1.0 ENE 9 11 5 6 1006.5 1006.4 6.8
22/08:30pm 26.8 31.5 25.0 90 1.3 NE 9 13 5 7 1006.2 1006.1 6.8
22/08:00pm 27.0 31.2 24.8 88 1.5 NE 11 15 6 8 1005.9 1005.8 6.8
22/07:39pm 27.4 31.5 25.2 88 1.5 NNE 13 19 7 10 1006.0 1005.9 6.8
22/07:30pm 27.5 32.3 25.7 90 1.3 NNE 11 20 6 11 1005.9 1005.8 6.8
22/07:22pm 27.2 32.9 25.6 91 1.1 NE 6 7 3 4 1005.8 1005.7 6.8
22/07:00pm 27.2 32.9 25.6 91 1.1 NE 6 7 3 4 1005.4 1005.3 6.8
22/06:30pm 26.9 32.4 25.3 91 1.1 NNE 6 9 3 5 1005.5 1005.4 6.8
22/06:00pm 26.7 31.6 25.3 92 1.0 ENE 9 13 5 7 1005.5 1005.4 6.8
22/05:30pm 26.3 31.1 25.1 93 0.8 NE 9 11 5 6 1005.4 1005.3 6.8
22/05:00pm 26.0 29.9 24.8 93 0.8 NE 13 15 7 8 1005.3 1005.2 6.6
22/04:30pm 26.0 30.0 25.0 94 0.7 ENE 13 15 7 8 1004.6 1004.5 6.4
22/04:01pm 25.7 29.9 24.7 94 0.7 ENE 11 17 6 9 1004.5 1004.4 6.4
22/04:00pm 25.9 29.9 25.0 95 0.6 ENE 13 19 7 10 1004.5 1004.4 6.4
22/03:34pm 26.3 29.1 25.3 94 0.7 ENE 20 24 11 13 1004.7 1004.6 2.4
22/03:30pm 26.3 29.6 25.1 93 0.8 E 17 24 9 13 1005.0 1004.9 1.2
22/03:00pm 28.0 31.1 24.2 80 2.6 NE 15 22 8 12 1005.4 1005.3 0.0
22/02:30pm 30.7 35.7 24.8 71 4.2 WSW 7 11 4 6 1005.5 1005.4 0.0
22/02:00pm 32.0 36.4 23.8 62 5.7 SSW 7 11 4 6 1005.5 1005.4 0.0
22/01:30pm 30.5 33.2 23.4 66 4.9 S 15 22 8 12 1005.7 1005.6 0.0
22/01:00pm 30.5 34.0 24.2 69 4.4 SSW 13 28 7 15 1006.1 1006.0 0.0
22/12:30pm 30.8 34.3 24.2 68 4.6 WSW 13 24 7 13 1006.9 1006.8 0.0
22/12:00pm 31.0 34.7 24.6 68 4.5 SW 13 24 7 13 1007.3 1007.2 0.0
22/11:30am 30.7 35.2 25.8 75 3.5 WSW 13 22 7 12 1007.9 1007.8 0.0
22/11:00am 30.0 34.1 24.6 73 3.8 SW 11 19 6 10 1008.2 1008.1 0.0
22/10:30am 29.5 33.6 24.6 75 3.4 WSW 11 19 6 10 1008.3 1008.2 0.0
22/10:00am 29.1 32.6 24.2 75 3.4 SW 13 20 7 11 1008.5 1008.4 0.0
22/09:30am 28.8 32.1 23.9 75 3.4 WSW 13 19 7 10 1009.0 1008.9 0.0
22/09:00am 28.7 32.0 23.8 75 3.4 WSW 13 24 7 13 1008.9 1008.8 0.0
22/08:30am 28.4 31.8 24.0 77 3.0 WSW 13 22 7 12 1008.6 1008.5 0.0
22/08:00am 27.9 31.0 23.5 77 3.0 WSW 13 20 7 11 1008.4 1008.3 0.0
22/07:30am 27.5 30.4 23.9 81 2.5 WSW 15 24 8 13 1008.3 1008.2 0.0
22/07:00am 27.4 30.2 23.6 80 2.6 WSW 15 22 8 12 1008.0 1007.9 0.0
22/06:30am 27.0 29.8 23.7 82 2.3 W 15 20 8 11 1007.7 1007.6 0.0
22/06:00am 27.1 30.0 23.8 82 2.3 W 15 22 8 12 1007.3 1007.2 0.0
22/05:30am 27.2 30.5 23.9 82 2.3 W 13 20 7 11 1007.2 1007.1 0.0
22/05:00am 27.1 30.0 23.8 82 2.3 W 15 24 8 13 1007.1 1007.0 0.0
22/04:30am 27.0 30.2 23.7 82 2.3 W 13 20 7 11 1007.1 1007.0 0.0
22/04:00am 27.2 29.5 23.4 80 2.6 W 17 24 9 13 1007.0 1006.9 0.0
22/03:30am 27.2 29.6 23.7 81 2.4 W 17 22 9 12 1007.2 1007.1 0.0
22/03:00am 27.1 29.9 23.6 81 2.4 W 15 22 8 12 1007.4 1007.3 0.0
22/02:30am 27.2 29.4 23.9 82 2.3 NW 19 24 10 13 1007.5 1007.4 0.0
22/02:00am 27.3 29.3 24.0 82 2.3 WNW 20 26 11 14 1007.8 1007.7 0.0
22/01:30am 27.4 29.5 23.8 81 2.5 WNW 19 24 10 13 1008.0 1007.9 0.0
22/01:00am 27.4 30.3 24.5 84 2.0 NW 17 22 9 12 1008.4 1008.3 0.0
22/12:30am 27.3 30.4 24.2 83 2.1 NW 15 20 8 11 1008.9 1008.8 0.0
22/12:00am 27.3 30.3 24.0 82 2.3 NW 15 20 8 11 1009.2 1009.1 0.0
 
Date/Time
CST
Temp
°C
App
Temp
°C
Dew
Point
°C
Rel
Hum
%
Delta-T
°C
Wind Press
QNH
hPa
Press
MSL
hPa
Rain since
9am
mm
Dir  Spd
km/h
Gust
km/h
Spd
kts
Gust
kts
21/11:30pm 27.5 29.7 23.9 81 2.5 NW 19 24 10 13 1009.2 1009.1 0.0
21/11:00pm 27.6 31.0 24.0 81 2.5 NNW 13 17 7 9 1009.1 1009.0 0.0
21/10:30pm 27.5 30.7 23.7 80 2.6 NNW 13 17 7 9 1009.0 1008.9 0.0
21/10:00pm 27.6 30.1 23.8 80 2.6 NW 17 20 9 11 1008.7 1008.6 0.0
21/09:30pm 27.8 28.2 23.2 76 3.1 NNW 26 35 14 19 1008.5 1008.4 0.0
21/09:00pm 27.5 31.8 23.7 80 2.6 WNW 7 24 4 13 1008.4 1008.3 0.0
21/08:30pm 26.8 30.8 23.7 83 2.1 N 9 15 5 8 1008.2 1008.1 0.0
21/08:00pm 27.4 30.7 23.8 81 2.5 NNW 13 19 7 10 1007.9 1007.8 0.0
21/07:30pm 28.4 29.5 24.4 79 2.8 NW 26 37 14 20 1007.6 1007.5 0.0
21/07:24pm 29.1 31.7 24.0 74 3.5 NNW 17 33 9 18 1007.5 1007.4 0.0
21/07:00pm 30.0 34.5 24.6 73 3.8 NW 9 11 5 6 1007.1 1007.0 0.0
21/06:30pm 30.4 34.0 24.3 70 4.3 NW 13 17 7 9 1006.6 1006.5 0.0
21/06:00pm 31.4 35.3 24.3 66 5.0 NW 11 15 6 8 1006.0 1005.9 0.0
21/05:30pm 30.9 34.6 23.3 64 5.2 NNW 9 11 5 6 1005.5 1005.4 0.0
21/05:00pm 30.7 34.2 23.6 66 4.9 NNW 11 15 6 8 1005.5 1005.4 0.0
21/04:30pm 30.9 33.5 23.3 64 5.2 NNW 15 19 8 10 1005.5 1005.4 0.0
21/04:00pm 32.2 35.4 22.3 56 6.8 W 9 17 5 9 1005.3 1005.2 0.0
21/03:30pm 32.7 36.6 23.6 58 6.3 WNW 9 17 5 9 1005.5 1005.4 0.0
21/03:00pm 32.6 37.0 23.5 58 6.3 WSW 6 13 3 7 1006.0 1005.9 0.0
21/02:30pm 31.7 36.4 24.3 65 5.2 SSW 7 13 4 7 1006.5 1006.4 0.0
21/02:00pm 30.8 34.5 23.2 64 5.2 SW 9 17 5 9 1007.2 1007.1 0.0
21/01:30pm 30.4 34.3 23.6 67 4.7 SW 9 13 5 7 1007.7 1007.6 0.0
21/01:00pm 29.9 33.5 23.1 67 4.7 WSW 9 15 5 8 1008.0 1007.9 0.0

Other Formats:

Comma delimited format used in spreadsheet applications
http://www.bom.gov.au/fwo/IDD60801/IDD60801.94153.axf

JavaScript Object Notation format (JSON) in row-major order
http://www.bom.gov.au/fwo/IDD60801/IDD60801.94153.json